sensor_id;sensor_type;location;lat;lon;timestamp;temperature;humidity
26964;DHT22;14521;48.148;-1.656;2023-09-18T00:02:59;24.20;99.50
26964;DHT22;14521;48.148;-1.656;2023-09-18T00:06:25;24.30;99.60
26964;DHT22;14521;48.148;-1.656;2023-09-18T00:09:47;24.30;99.60
26964;DHT22;14521;48.148;-1.656;2023-09-18T00:13:11;24.40;99.60
26964;DHT22;14521;48.148;-1.656;2023-09-18T00:16:33;24.40;99.60
26964;DHT22;14521;48.148;-1.656;2023-09-18T00:20:13;24.40;99.70
26964;DHT22;14521;48.148;-1.656;2023-09-18T00:23:36;24.30;99.90
26964;DHT22;14521;48.148;-1.656;2023-09-18T00:26:59;24.30;99.90
26964;DHT22;14521;48.148;-1.656;2023-09-18T00:30:21;24.30;99.90
26964;DHT22;14521;48.148;-1.656;2023-09-18T00:33:45;24.30;99.90
26964;DHT22;14521;48.148;-1.656;2023-09-18T00:37:07;24.30;99.90
26964;DHT22;14521;48.148;-1.656;2023-09-18T00:40:32;24.30;99.90
26964;DHT22;14521;48.148;-1.656;2023-09-18T00:43:54;24.30;99.90
26964;DHT22;14521;48.148;-1.656;2023-09-18T00:47:17;24.30;99.90
26964;DHT22;14521;48.148;-1.656;2023-09-18T00:50:41;24.30;99.90
26964;DHT22;14521;48.148;-1.656;2023-09-18T00:54:04;24.20;99.90
26964;DHT22;14521;48.148;-1.656;2023-09-18T00:57:26;24.20;99.90
26964;DHT22;14521;48.148;-1.656;2023-09-18T01:00:49;24.20;99.90
26964;DHT22;14521;48.148;-1.656;2023-09-18T01:04:15;24.20;99.90
26964;DHT22;14521;48.148;-1.656;2023-09-18T01:07:37;24.10;99.90
26964;DHT22;14521;48.148;-1.656;2023-09-18T01:14:31;24.10;99.90
26964;DHT22;14521;48.148;-1.656;2023-09-18T01:17:55;24.10;99.90
26964;DHT22;14521;48.148;-1.656;2023-09-18T01:21:20;24.10;99.90
26964;DHT22;14521;48.148;-1.656;2023-09-18T01:24:44;24.10;99.90
26964;DHT22;14521;48.148;-1.656;2023-09-18T01:28:07;24.10;99.90
26964;DHT22;14521;48.148;-1.656;2023-09-18T01:31:29;24.20;99.90
26964;DHT22;14521;48.148;-1.656;2023-09-18T01:34:54;24.20;99.90
26964;DHT22;14521;48.148;-1.656;2023-09-18T01:38:17;24.30;99.90
26964;DHT22;14521;48.148;-1.656;2023-09-18T01:41:40;24.30;99.90
26964;DHT22;14521;48.148;-1.656;2023-09-18T01:45:03;24.30;99.90
26964;DHT22;14521;48.148;-1.656;2023-09-18T01:48:27;24.30;99.90
26964;DHT22;14521;48.148;-1.656;2023-09-18T01:51:50;24.30;99.90
26964;DHT22;14521;48.148;-1.656;2023-09-18T01:55:12;24.30;99.90
26964;DHT22;14521;48.148;-1.656;2023-09-18T01:58:34;24.20;99.90
26964;DHT22;14521;48.148;-1.656;2023-09-18T02:01:57;24.30;99.90
26964;DHT22;14521;48.148;-1.656;2023-09-18T02:05:20;24.20;99.90
26964;DHT22;14521;48.148;-1.656;2023-09-18T02:08:44;24.20;99.90
26964;DHT22;14521;48.148;-1.656;2023-09-18T02:12:07;24.20;99.90
26964;DHT22;14521;48.148;-1.656;2023-09-18T02:15:30;24.20;99.90
26964;DHT22;14521;48.148;-1.656;2023-09-18T02:18:55;24.30;99.90
26964;DHT22;14521;48.148;-1.656;2023-09-18T02:22:20;24.20;99.90
26964;DHT22;14521;48.148;-1.656;2023-09-18T02:25:42;24.20;99.90
26964;DHT22;14521;48.148;-1.656;2023-09-18T02:29:09;24.20;99.90
26964;DHT22;14521;48.148;-1.656;2023-09-18T02:32:33;24.20;99.90
26964;DHT22;14521;48.148;-1.656;2023-09-18T02:35:57;24.20;99.90
26964;DHT22;14521;48.148;-1.656;2023-09-18T02:39:20;24.20;99.90
26964;DHT22;14521;48.148;-1.656;2023-09-18T02:42:44;24.20;99.90
26964;DHT22;14521;48.148;-1.656;2023-09-18T02:46:07;24.20;99.90
26964;DHT22;14521;48.148;-1.656;2023-09-18T02:49:30;24.20;99.90
26964;DHT22;14521;48.148;-1.656;2023-09-18T02:52:53;24.20;99.90
26964;DHT22;14521;48.148;-1.656;2023-09-18T02:56:15;24.20;99.90
26964;DHT22;14521;48.148;-1.656;2023-09-18T02:59:38;24.20;99.90
26964;DHT22;14521;48.148;-1.656;2023-09-18T03:03:00;24.20;99.90
26964;DHT22;14521;48.148;-1.656;2023-09-18T03:06:23;24.10;99.90
26964;DHT22;14521;48.148;-1.656;2023-09-18T03:09:46;24.20;99.90
26964;DHT22;14521;48.148;-1.656;2023-09-18T03:13:09;24.10;99.90
26964;DHT22;14521;48.148;-1.656;2023-09-18T03:16:32;24.20;99.90
26964;DHT22;14521;48.148;-1.656;2023-09-18T03:19:56;24.20;99.90
26964;DHT22;14521;48.148;-1.656;2023-09-18T03:23:19;24.20;99.90
26964;DHT22;14521;48.148;-1.656;2023-09-18T03:26:42;24.20;99.90
26964;DHT22;14521;48.148;-1.656;2023-09-18T03:30:05;24.20;99.90
26964;DHT22;14521;48.148;-1.656;2023-09-18T03:33:28;24.20;99.90
26964;DHT22;14521;48.148;-1.656;2023-09-18T03:36:50;24.20;99.90
26964;DHT22;14521;48.148;-1.656;2023-09-18T03:40:13;24.20;99.90
26964;DHT22;14521;48.148;-1.656;2023-09-18T03:43:35;24.20;99.90
26964;DHT22;14521;48.148;-1.656;2023-09-18T03:46:58;24.20;99.90
26964;DHT22;14521;48.148;-1.656;2023-09-18T03:50:20;24.20;99.90
26964;DHT22;14521;48.148;-1.656;2023-09-18T03:53:43;24.20;99.90
26964;DHT22;14521;48.148;-1.656;2023-09-18T03:57:06;24.10;99.90
26964;DHT22;14521;48.148;-1.656;2023-09-18T04:00:28;24.10;99.90
26964;DHT22;14521;48.148;-1.656;2023-09-18T04:03:50;24.10;99.90
26964;DHT22;14521;48.148;-1.656;2023-09-18T04:07:13;24.10;99.90
26964;DHT22;14521;48.148;-1.656;2023-09-18T04:10:38;24.10;99.90
26964;DHT22;14521;48.148;-1.656;2023-09-18T04:14:01;24.00;99.90
26964;DHT22;14521;48.148;-1.656;2023-09-18T04:17:25;24.10;99.90
26964;DHT22;14521;48.148;-1.656;2023-09-18T04:20:47;24.00;99.90
26964;DHT22;14521;48.148;-1.656;2023-09-18T04:24:12;24.00;99.90
26964;DHT22;14521;48.148;-1.656;2023-09-18T04:27:34;24.00;99.90
26964;DHT22;14521;48.148;-1.656;2023-09-18T04:30:56;24.00;99.90
26964;DHT22;14521;48.148;-1.656;2023-09-18T04:34:21;24.10;99.90
26964;DHT22;14521;48.148;-1.656;2023-09-18T04:37:44;24.10;99.90
26964;DHT22;14521;48.148;-1.656;2023-09-18T04:41:06;24.10;99.90
26964;DHT22;14521;48.148;-1.656;2023-09-18T04:44:32;24.10;99.90
26964;DHT22;14521;48.148;-1.656;2023-09-18T04:47:56;24.10;99.90
26964;DHT22;14521;48.148;-1.656;2023-09-18T04:51:18;24.10;99.90
26964;DHT22;14521;48.148;-1.656;2023-09-18T04:54:41;24.10;99.90
26964;DHT22;14521;48.148;-1.656;2023-09-18T04:58:03;24.10;99.90
26964;DHT22;14521;48.148;-1.656;2023-09-18T05:01:27;24.10;99.90
26964;DHT22;14521;48.148;-1.656;2023-09-18T05:05:08;24.00;99.90
26964;DHT22;14521;48.148;-1.656;2023-09-18T05:08:34;24.10;99.90
26964;DHT22;14521;48.148;-1.656;2023-09-18T05:11:56;24.20;99.90
26964;DHT22;14521;48.148;-1.656;2023-09-18T05:15:20;24.30;99.90
26964;DHT22;14521;48.148;-1.656;2023-09-18T05:18:42;24.40;99.90
26964;DHT22;14521;48.148;-1.656;2023-09-18T05:22:05;24.40;99.90
26964;DHT22;14521;48.148;-1.656;2023-09-18T05:25:28;24.50;99.90
26964;DHT22;14521;48.148;-1.656;2023-09-18T05:28:54;24.50;99.90
26964;DHT22;14521;48.148;-1.656;2023-09-18T05:32:17;24.50;99.90
26964;DHT22;14521;48.148;-1.656;2023-09-18T05:35:44;24.60;99.90
26964;DHT22;14521;48.148;-1.656;2023-09-18T05:39:07;24.60;99.90
26964;DHT22;14521;48.148;-1.656;2023-09-18T05:42:36;24.60;99.90
26964;DHT22;14521;48.148;-1.656;2023-09-18T05:45:58;24.60;99.90
26964;DHT22;14521;48.148;-1.656;2023-09-18T05:49:21;24.60;99.90
26964;DHT22;14521;48.148;-1.656;2023-09-18T05:52:44;24.60;99.90
26964;DHT22;14521;48.148;-1.656;2023-09-18T05:56:07;24.60;99.90
26964;DHT22;14521;48.148;-1.656;2023-09-18T05:59:31;24.60;99.90
26964;DHT22;14521;48.148;-1.656;2023-09-18T06:02:54;24.60;99.90
26964;DHT22;14521;48.148;-1.656;2023-09-18T06:06:17;24.60;99.90
26964;DHT22;14521;48.148;-1.656;2023-09-18T06:09:39;24.60;99.90
26964;DHT22;14521;48.148;-1.656;2023-09-18T06:13:02;24.60;99.90
26964;DHT22;14521;48.148;-1.656;2023-09-18T06:16:26;24.60;99.90
26964;DHT22;14521;48.148;-1.656;2023-09-18T06:19:49;24.60;99.90
26964;DHT22;14521;48.148;-1.656;2023-09-18T06:23:11;24.60;99.90
26964;DHT22;14521;48.148;-1.656;2023-09-18T06:26:35;24.60;99.90
26964;DHT22;14521;48.148;-1.656;2023-09-18T06:29:57;24.60;99.50
26964;DHT22;14521;48.148;-1.656;2023-09-18T06:33:20;24.60;99.70
26964;DHT22;14521;48.148;-1.656;2023-09-18T06:36:42;24.50;99.80
26964;DHT22;14521;48.148;-1.656;2023-09-18T06:40:05;24.50;99.90
26964;DHT22;14521;48.148;-1.656;2023-09-18T06:43:28;24.50;99.90
26964;DHT22;14521;48.148;-1.656;2023-09-18T06:46:50;24.50;99.90
26964;DHT22;14521;48.148;-1.656;2023-09-18T06:50:12;24.50;99.90
26964;DHT22;14521;48.148;-1.656;2023-09-18T06:53:35;24.50;99.90
26964;DHT22;14521;48.148;-1.656;2023-09-18T06:56:57;24.40;99.90
26964;DHT22;14521;48.148;-1.656;2023-09-18T07:00:19;24.30;99.90
26964;DHT22;14521;48.148;-1.656;2023-09-18T07:03:43;24.40;99.90
26964;DHT22;14521;48.148;-1.656;2023-09-18T07:07:05;24.30;99.90
26964;DHT22;14521;48.148;-1.656;2023-09-18T07:10:28;24.40;99.90
26964;DHT22;14521;48.148;-1.656;2023-09-18T07:13:52;24.40;99.90
26964;DHT22;14521;48.148;-1.656;2023-09-18T07:17:15;24.50;99.90
26964;DHT22;14521;48.148;-1.656;2023-09-18T07:20:38;24.60;99.90
26964;DHT22;14521;48.148;-1.656;2023-09-18T07:24:00;24.50;99.90
26964;DHT22;14521;48.148;-1.656;2023-09-18T07:27:23;24.60;99.90
26964;DHT22;14521;48.148;-1.656;2023-09-18T07:30:45;24.60;99.90
26964;DHT22;14521;48.148;-1.656;2023-09-18T07:34:08;24.60;99.90
26964;DHT22;14521;48.148;-1.656;2023-09-18T07:37:35;24.60;99.90
26964;DHT22;14521;48.148;-1.656;2023-09-18T07:40:58;24.60;99.90
26964;DHT22;14521;48.148;-1.656;2023-09-18T07:44:21;24.60;99.70
26964;DHT22;14521;48.148;-1.656;2023-09-18T07:47:44;24.60;99.70
26964;DHT22;14521;48.148;-1.656;2023-09-18T07:51:10;24.60;99.60
26964;DHT22;14521;48.148;-1.656;2023-09-18T07:54:35;24.60;99.50
26964;DHT22;14521;48.148;-1.656;2023-09-18T07:57:57;24.60;99.50
26964;DHT22;14521;48.148;-1.656;2023-09-18T08:01:21;24.60;99.50
26964;DHT22;14521;48.148;-1.656;2023-09-18T08:04:44;24.60;99.40
26964;DHT22;14521;48.148;-1.656;2023-09-18T08:08:06;24.70;99.40
26964;DHT22;14521;48.148;-1.656;2023-09-18T08:11:29;24.60;99.40
26964;DHT22;14521;48.148;-1.656;2023-09-18T08:14:51;24.60;99.20
26964;DHT22;14521;48.148;-1.656;2023-09-18T08:18:14;24.60;99.30
26964;DHT22;14521;48.148;-1.656;2023-09-18T08:21:36;24.60;99.10
26964;DHT22;14521;48.148;-1.656;2023-09-18T08:24:59;24.70;99.00
26964;DHT22;14521;48.148;-1.656;2023-09-18T08:28:21;24.60;99.20
26964;DHT22;14521;48.148;-1.656;2023-09-18T08:31:44;24.70;99.20
26964;DHT22;14521;48.148;-1.656;2023-09-18T08:35:07;24.80;99.00
26964;DHT22;14521;48.148;-1.656;2023-09-18T08:38:30;24.80;99.00
26964;DHT22;14521;48.148;-1.656;2023-09-18T08:41:57;24.70;98.60
26964;DHT22;14521;48.148;-1.656;2023-09-18T08:45:31;24.70;98.60
26964;DHT22;14521;48.148;-1.656;2023-09-18T08:48:56;24.70;98.80
26964;DHT22;14521;48.148;-1.656;2023-09-18T08:52:19;24.70;98.70
26964;DHT22;14521;48.148;-1.656;2023-09-18T08:55:42;24.40;98.00
26964;DHT22;14521;48.148;-1.656;2023-09-18T08:59:05;24.00;98.70
26964;DHT22;14521;48.148;-1.656;2023-09-18T09:02:27;23.70;99.10
26964;DHT22;14521;48.148;-1.656;2023-09-18T09:05:50;23.50;99.10
26964;DHT22;14521;48.148;-1.656;2023-09-18T09:09:12;23.20;99.30
26964;DHT22;14521;48.148;-1.656;2023-09-18T09:12:57;23.20;99.70
26964;DHT22;14521;48.148;-1.656;2023-09-18T09:16:20;23.10;99.60
26964;DHT22;14521;48.148;-1.656;2023-09-18T09:19:43;23.10;99.80
26964;DHT22;14521;48.148;-1.656;2023-09-18T09:23:09;23.10;99.70
26964;DHT22;14521;48.148;-1.656;2023-09-18T09:26:32;23.10;99.80
26964;DHT22;14521;48.148;-1.656;2023-09-18T09:30:00;23.10;99.90
26964;DHT22;14521;48.148;-1.656;2023-09-18T09:33:24;23.20;99.90
26964;DHT22;14521;48.148;-1.656;2023-09-18T09:36:54;23.20;99.90
26964;DHT22;14521;48.148;-1.656;2023-09-18T09:40:19;23.20;99.90
26964;DHT22;14521;48.148;-1.656;2023-09-18T09:43:43;23.20;99.80
26964;DHT22;14521;48.148;-1.656;2023-09-18T09:47:06;23.20;99.90
26964;DHT22;14521;48.148;-1.656;2023-09-18T09:50:28;23.20;99.90
26964;DHT22;14521;48.148;-1.656;2023-09-18T09:53:51;23.20;99.90
26964;DHT22;14521;48.148;-1.656;2023-09-18T09:57:14;23.20;99.90
26964;DHT22;14521;48.148;-1.656;2023-09-18T10:00:45;23.40;99.90
26964;DHT22;14521;48.148;-1.656;2023-09-18T10:04:14;23.60;99.90
26964;DHT22;14521;48.148;-1.656;2023-09-18T10:07:39;23.80;99.90
26964;DHT22;14521;48.148;-1.656;2023-09-18T10:11:06;23.90;99.70
26964;DHT22;14521;48.148;-1.656;2023-09-18T10:14:32;23.90;99.50
26964;DHT22;14521;48.148;-1.656;2023-09-18T10:18:30;24.00;99.40
26964;DHT22;14521;48.148;-1.656;2023-09-18T10:25:31;24.20;99.10
26964;DHT22;14521;48.148;-1.656;2023-09-18T10:28:54;24.20;99.10
26964;DHT22;14521;48.148;-1.656;2023-09-18T10:32:21;24.20;99.00
26964;DHT22;14521;48.148;-1.656;2023-09-18T10:35:46;24.30;99.00
26964;DHT22;14521;48.148;-1.656;2023-09-18T10:39:10;24.30;99.00
26964;DHT22;14521;48.148;-1.656;2023-09-18T10:42:38;24.30;99.00
26964;DHT22;14521;48.148;-1.656;2023-09-18T10:46:00;24.30;99.00
26964;DHT22;14521;48.148;-1.656;2023-09-18T10:49:23;24.30;98.80
26964;DHT22;14521;48.148;-1.656;2023-09-18T10:52:46;24.40;98.80
26964;DHT22;14521;48.148;-1.656;2023-09-18T10:56:09;24.30;98.90
26964;DHT22;14521;48.148;-1.656;2023-09-18T10:59:31;24.40;98.80
26964;DHT22;14521;48.148;-1.656;2023-09-18T11:03:15;24.40;98.80
26964;DHT22;14521;48.148;-1.656;2023-09-18T11:10:34;24.50;99.10
26964;DHT22;14521;48.148;-1.656;2023-09-18T11:14:00;24.60;99.00
26964;DHT22;14521;48.148;-1.656;2023-09-18T11:17:36;24.70;99.20
26964;DHT22;14521;48.148;-1.656;2023-09-18T11:21:12;24.70;99.30
26964;DHT22;14521;48.148;-1.656;2023-09-18T11:24:37;24.80;99.60
26964;DHT22;14521;48.148;-1.656;2023-09-18T11:28:00;24.80;99.70
26964;DHT22;14521;48.148;-1.656;2023-09-18T11:31:41;24.80;99.40
26964;DHT22;14521;48.148;-1.656;2023-09-18T11:35:09;24.80;98.80
26964;DHT22;14521;48.148;-1.656;2023-09-18T11:38:36;24.80;99.20
26964;DHT22;14521;48.148;-1.656;2023-09-18T11:42:17;24.70;98.50
26964;DHT22;14521;48.148;-1.656;2023-09-18T11:45:59;24.70;98.50
26964;DHT22;14521;48.148;-1.656;2023-09-18T11:49:24;24.70;98.60
26964;DHT22;14521;48.148;-1.656;2023-09-18T11:52:50;24.70;98.60
26964;DHT22;14521;48.148;-1.656;2023-09-18T11:56:12;24.70;98.50
26964;DHT22;14521;48.148;-1.656;2023-09-18T11:59:41;24.60;98.50
26964;DHT22;14521;48.148;-1.656;2023-09-18T12:03:26;24.60;98.60
26964;DHT22;14521;48.148;-1.656;2023-09-18T12:06:49;24.60;98.20
26964;DHT22;14521;48.148;-1.656;2023-09-18T12:10:14;24.60;97.90
26964;DHT22;14521;48.148;-1.656;2023-09-18T12:13:37;24.80;99.30
26964;DHT22;14521;48.148;-1.656;2023-09-18T12:17:01;24.80;99.00
26964;DHT22;14521;48.148;-1.656;2023-09-18T12:20:25;24.90;98.60
26964;DHT22;14521;48.148;-1.656;2023-09-18T12:23:47;24.90;99.10
26964;DHT22;14521;48.148;-1.656;2023-09-18T12:27:10;24.90;97.70
26964;DHT22;14521;48.148;-1.656;2023-09-18T12:30:33;24.90;97.60
26964;DHT22;14521;48.148;-1.656;2023-09-18T12:33:56;24.90;97.80
26964;DHT22;14521;48.148;-1.656;2023-09-18T12:37:18;24.90;97.80
26964;DHT22;14521;48.148;-1.656;2023-09-18T12:40:41;24.90;97.60
26964;DHT22;14521;48.148;-1.656;2023-09-18T12:44:05;24.90;97.80
26964;DHT22;14521;48.148;-1.656;2023-09-18T12:47:28;24.90;97.80
26964;DHT22;14521;48.148;-1.656;2023-09-18T12:50:53;24.90;97.70
26964;DHT22;14521;48.148;-1.656;2023-09-18T12:54:16;24.90;97.80
26964;DHT22;14521;48.148;-1.656;2023-09-18T12:57:39;24.90;97.80
26964;DHT22;14521;48.148;-1.656;2023-09-18T13:01:06;24.90;97.70
26964;DHT22;14521;48.148;-1.656;2023-09-18T13:04:36;24.90;97.90
26964;DHT22;14521;48.148;-1.656;2023-09-18T13:08:12;24.80;97.80
26964;DHT22;14521;48.148;-1.656;2023-09-18T13:11:52;24.90;98.20
26964;DHT22;14521;48.148;-1.656;2023-09-18T13:15:28;25.00;97.70
26964;DHT22;14521;48.148;-1.656;2023-09-18T13:18:51;25.10;97.60
26964;DHT22;14521;48.148;-1.656;2023-09-18T13:22:32;25.10;97.50
26964;DHT22;14521;48.148;-1.656;2023-09-18T13:25:59;24.90;96.70
26964;DHT22;14521;48.148;-1.656;2023-09-18T13:29:24;24.90;97.10
26964;DHT22;14521;48.148;-1.656;2023-09-18T13:32:50;24.90;97.00
26964;DHT22;14521;48.148;-1.656;2023-09-18T13:36:13;24.90;97.30
26964;DHT22;14521;48.148;-1.656;2023-09-18T13:39:35;24.90;97.20
26964;DHT22;14521;48.148;-1.656;2023-09-18T13:42:57;24.90;97.00
26964;DHT22;14521;48.148;-1.656;2023-09-18T13:46:20;24.90;97.30
26964;DHT22;14521;48.148;-1.656;2023-09-18T13:49:42;24.90;97.50
26964;DHT22;14521;48.148;-1.656;2023-09-18T13:53:04;25.00;97.20
26964;DHT22;14521;48.148;-1.656;2023-09-18T13:56:27;25.00;97.20
26964;DHT22;14521;48.148;-1.656;2023-09-18T13:59:51;25.10;97.00
26964;DHT22;14521;48.148;-1.656;2023-09-18T14:03:13;25.10;97.00
26964;DHT22;14521;48.148;-1.656;2023-09-18T14:06:39;25.10;96.90
26964;DHT22;14521;48.148;-1.656;2023-09-18T14:10:02;25.00;96.80
26964;DHT22;14521;48.148;-1.656;2023-09-18T14:13:28;25.00;96.90
26964;DHT22;14521;48.148;-1.656;2023-09-18T14:16:51;25.00;96.80
26964;DHT22;14521;48.148;-1.656;2023-09-18T14:20:15;25.00;96.70
26964;DHT22;14521;48.148;-1.656;2023-09-18T14:23:41;25.10;96.40
26964;DHT22;14521;48.148;-1.656;2023-09-18T14:27:04;25.00;96.50
26964;DHT22;14521;48.148;-1.656;2023-09-18T14:30:27;25.10;96.70
26964;DHT22;14521;48.148;-1.656;2023-09-18T14:33:53;25.10;96.60
26964;DHT22;14521;48.148;-1.656;2023-09-18T14:37:35;25.00;96.40
26964;DHT22;14521;48.148;-1.656;2023-09-18T14:40:58;25.10;96.40
26964;DHT22;14521;48.148;-1.656;2023-09-18T14:44:25;25.10;96.30
26964;DHT22;14521;48.148;-1.656;2023-09-18T14:47:47;25.10;96.20
26964;DHT22;14521;48.148;-1.656;2023-09-18T14:51:10;25.10;96.10
26964;DHT22;14521;48.148;-1.656;2023-09-18T14:54:33;25.10;96.10
26964;DHT22;14521;48.148;-1.656;2023-09-18T14:57:56;25.10;96.10
26964;DHT22;14521;48.148;-1.656;2023-09-18T15:01:18;25.10;96.00
26964;DHT22;14521;48.148;-1.656;2023-09-18T15:04:42;25.20;95.90
26964;DHT22;14521;48.148;-1.656;2023-09-18T15:08:07;25.10;95.80
26964;DHT22;14521;48.148;-1.656;2023-09-18T15:11:30;25.20;95.90
26964;DHT22;14521;48.148;-1.656;2023-09-18T15:14:52;25.10;95.50
26964;DHT22;14521;48.148;-1.656;2023-09-18T15:18:14;25.10;95.40
26964;DHT22;14521;48.148;-1.656;2023-09-18T15:21:37;25.10;95.90
26964;DHT22;14521;48.148;-1.656;2023-09-18T15:25:02;25.10;94.70
26964;DHT22;14521;48.148;-1.656;2023-09-18T15:28:25;25.10;95.70
26964;DHT22;14521;48.148;-1.656;2023-09-18T15:31:49;25.10;95.50
26964;DHT22;14521;48.148;-1.656;2023-09-18T15:35:11;25.10;95.50
26964;DHT22;14521;48.148;-1.656;2023-09-18T15:38:34;25.10;95.50
26964;DHT22;14521;48.148;-1.656;2023-09-18T15:41:56;25.10;95.50
26964;DHT22;14521;48.148;-1.656;2023-09-18T15:45:18;25.10;95.10
26964;DHT22;14521;48.148;-1.656;2023-09-18T15:48:41;25.10;95.00
26964;DHT22;14521;48.148;-1.656;2023-09-18T15:52:03;25.10;94.70
26964;DHT22;14521;48.148;-1.656;2023-09-18T15:55:25;25.10;94.00
26964;DHT22;14521;48.148;-1.656;2023-09-18T15:58:48;25.10;94.40
26964;DHT22;14521;48.148;-1.656;2023-09-18T16:02:10;25.10;95.00
26964;DHT22;14521;48.148;-1.656;2023-09-18T16:05:33;25.10;94.00
26964;DHT22;14521;48.148;-1.656;2023-09-18T16:08:55;25.10;93.80
26964;DHT22;14521;48.148;-1.656;2023-09-18T16:12:19;25.00;93.70
26964;DHT22;14521;48.148;-1.656;2023-09-18T16:15:41;25.10;94.00
26964;DHT22;14521;48.148;-1.656;2023-09-18T16:19:05;25.10;93.80
26964;DHT22;14521;48.148;-1.656;2023-09-18T16:22:28;25.00;93.80
26964;DHT22;14521;48.148;-1.656;2023-09-18T16:25:50;25.10;93.90
26964;DHT22;14521;48.148;-1.656;2023-09-18T16:29:13;25.00;93.80
26964;DHT22;14521;48.148;-1.656;2023-09-18T16:32:37;25.10;94.00
26964;DHT22;14521;48.148;-1.656;2023-09-18T16:35:59;25.00;93.20
26964;DHT22;14521;48.148;-1.656;2023-09-18T16:39:22;25.10;93.40
26964;DHT22;14521;48.148;-1.656;2023-09-18T16:42:47;25.10;93.50
26964;DHT22;14521;48.148;-1.656;2023-09-18T16:46:09;25.10;93.50
26964;DHT22;14521;48.148;-1.656;2023-09-18T16:49:32;25.10;93.10
26964;DHT22;14521;48.148;-1.656;2023-09-18T16:52:54;25.00;92.90
26964;DHT22;14521;48.148;-1.656;2023-09-18T16:56:16;25.00;92.90
26964;DHT22;14521;48.148;-1.656;2023-09-18T16:59:39;25.00;92.90
26964;DHT22;14521;48.148;-1.656;2023-09-18T17:03:01;24.90;92.10
26964;DHT22;14521;48.148;-1.656;2023-09-18T17:06:27;24.90;91.60
26964;DHT22;14521;48.148;-1.656;2023-09-18T17:09:49;24.90;91.40
26964;DHT22;14521;48.148;-1.656;2023-09-18T17:13:12;24.90;91.10
26964;DHT22;14521;48.148;-1.656;2023-09-18T17:16:34;24.80;91.10
26964;DHT22;14521;48.148;-1.656;2023-09-18T17:19:58;24.80;90.90
26964;DHT22;14521;48.148;-1.656;2023-09-18T17:23:20;24.80;90.90
26964;DHT22;14521;48.148;-1.656;2023-09-18T17:26:42;24.80;90.50
26964;DHT22;14521;48.148;-1.656;2023-09-18T17:30:05;24.80;90.50
26964;DHT22;14521;48.148;-1.656;2023-09-18T17:33:28;24.70;90.40
26964;DHT22;14521;48.148;-1.656;2023-09-18T17:36:50;24.70;90.50
26964;DHT22;14521;48.148;-1.656;2023-09-18T17:40:12;24.70;90.40
26964;DHT22;14521;48.148;-1.656;2023-09-18T17:43:35;24.80;91.00
26964;DHT22;14521;48.148;-1.656;2023-09-18T17:46:58;24.80;91.40
26964;DHT22;14521;48.148;-1.656;2023-09-18T17:50:20;24.90;91.90
26964;DHT22;14521;48.148;-1.656;2023-09-18T17:54:01;24.90;92.50
26964;DHT22;14521;48.148;-1.656;2023-09-18T17:57:24;24.90;92.50
26964;DHT22;14521;48.148;-1.656;2023-09-18T18:00:46;24.90;92.70
26964;DHT22;14521;48.148;-1.656;2023-09-18T18:04:10;25.00;92.80
26964;DHT22;14521;48.148;-1.656;2023-09-18T18:07:33;25.00;92.80
26964;DHT22;14521;48.148;-1.656;2023-09-18T18:10:55;25.00;92.90
26964;DHT22;14521;48.148;-1.656;2023-09-18T18:14:17;25.00;93.10
26964;DHT22;14521;48.148;-1.656;2023-09-18T18:17:40;25.00;93.20
26964;DHT22;14521;48.148;-1.656;2023-09-18T18:21:03;25.00;93.30
26964;DHT22;14521;48.148;-1.656;2023-09-18T18:24:26;25.10;92.90
26964;DHT22;14521;48.148;-1.656;2023-09-18T18:27:48;25.00;92.80
26964;DHT22;14521;48.148;-1.656;2023-09-18T18:31:11;25.00;93.20
26964;DHT22;14521;48.148;-1.656;2023-09-18T18:34:34;25.10;93.10
26964;DHT22;14521;48.148;-1.656;2023-09-18T18:37:57;25.10;92.90
26964;DHT22;14521;48.148;-1.656;2023-09-18T18:41:20;25.10;93.00
26964;DHT22;14521;48.148;-1.656;2023-09-18T18:44:42;25.10;92.90
26964;DHT22;14521;48.148;-1.656;2023-09-18T18:48:05;24.90;91.10
26964;DHT22;14521;48.148;-1.656;2023-09-18T18:51:27;24.80;90.60
26964;DHT22;14521;48.148;-1.656;2023-09-18T18:54:50;24.80;91.00
26964;DHT22;14521;48.148;-1.656;2023-09-18T18:58:12;24.90;91.00
26964;DHT22;14521;48.148;-1.656;2023-09-18T19:01:35;24.90;90.50
26964;DHT22;14521;48.148;-1.656;2023-09-18T19:04:57;24.40;91.40
26964;DHT22;14521;48.148;-1.656;2023-09-18T19:08:20;24.40;91.90
26964;DHT22;14521;48.148;-1.656;2023-09-18T19:11:42;24.50;91.00
26964;DHT22;14521;48.148;-1.656;2023-09-18T19:15:05;24.50;90.80
26964;DHT22;14521;48.148;-1.656;2023-09-18T19:18:28;24.60;90.80
26964;DHT22;14521;48.148;-1.656;2023-09-18T19:21:54;24.60;91.50
26964;DHT22;14521;48.148;-1.656;2023-09-18T19:25:16;24.60;91.20
26964;DHT22;14521;48.148;-1.656;2023-09-18T19:28:39;24.60;91.00
26964;DHT22;14521;48.148;-1.656;2023-09-18T19:32:01;24.60;91.30
26964;DHT22;14521;48.148;-1.656;2023-09-18T19:35:24;24.60;90.80
26964;DHT22;14521;48.148;-1.656;2023-09-18T19:38:47;24.50;90.90
26964;DHT22;14521;48.148;-1.656;2023-09-18T19:42:09;24.40;90.90
26964;DHT22;14521;48.148;-1.656;2023-09-18T19:45:31;24.40;90.90
26964;DHT22;14521;48.148;-1.656;2023-09-18T19:48:54;24.40;90.70
26964;DHT22;14521;48.148;-1.656;2023-09-18T19:52:16;24.40;90.80
26964;DHT22;14521;48.148;-1.656;2023-09-18T19:55:40;24.40;90.70
26964;DHT22;14521;48.148;-1.656;2023-09-18T19:59:02;24.40;90.70
26964;DHT22;14521;48.148;-1.656;2023-09-18T20:02:43;24.50;91.10
26964;DHT22;14521;48.148;-1.656;2023-09-18T20:06:08;24.50;91.20
26964;DHT22;14521;48.148;-1.656;2023-09-18T20:09:31;24.50;90.90
26964;DHT22;14521;48.148;-1.656;2023-09-18T20:12:53;24.60;91.00
26964;DHT22;14521;48.148;-1.656;2023-09-18T20:16:16;24.50;90.70
26964;DHT22;14521;48.148;-1.656;2023-09-18T20:19:38;24.50;90.60
26964;DHT22;14521;48.148;-1.656;2023-09-18T20:23:01;24.40;90.50
26964;DHT22;14521;48.148;-1.656;2023-09-18T20:26:23;24.40;90.40
26964;DHT22;14521;48.148;-1.656;2023-09-18T20:29:45;24.30;90.40
26964;DHT22;14521;48.148;-1.656;2023-09-18T20:33:08;24.30;90.70
26964;DHT22;14521;48.148;-1.656;2023-09-18T20:36:31;24.30;90.50
26964;DHT22;14521;48.148;-1.656;2023-09-18T20:39:53;24.30;90.70
26964;DHT22;14521;48.148;-1.656;2023-09-18T20:43:17;24.30;90.30
26964;DHT22;14521;48.148;-1.656;2023-09-18T20:46:39;24.30;90.30
26964;DHT22;14521;48.148;-1.656;2023-09-18T20:50:01;24.30;90.20
26964;DHT22;14521;48.148;-1.656;2023-09-18T20:53:25;24.10;90.10
26964;DHT22;14521;48.148;-1.656;2023-09-18T20:56:47;24.20;90.30
26964;DHT22;14521;48.148;-1.656;2023-09-18T21:00:10;24.10;90.00
26964;DHT22;14521;48.148;-1.656;2023-09-18T21:03:33;24.10;90.00
26964;DHT22;14521;48.148;-1.656;2023-09-18T21:06:56;24.00;89.90
26964;DHT22;14521;48.148;-1.656;2023-09-18T21:10:18;24.00;90.10
26964;DHT22;14521;48.148;-1.656;2023-09-18T21:13:40;24.00;90.00
26964;DHT22;14521;48.148;-1.656;2023-09-18T21:17:08;24.00;89.80
26964;DHT22;14521;48.148;-1.656;2023-09-18T21:20:30;23.90;89.70